Time;durP1;ratioP1;P1;durP2;ratioP2;P2;SDS_P1;SDS_P2;PMS_P1;PMS_P2;Temp;Humidity;BMP_temperature;BMP_pressure;BME280_temperature;BME280_humidity;BME280_pressure;Samples;Min_cycle;Max_cycle;Signal;HPM_P1;HPM_P2
2022/01/30 00:01:53;;;;;;;25.23;4.63;;;;;;;;;;5075194;28;20043;-93
2022/01/30 00:04:19;;;;;;;21.63;4.18;;;;;;;;;;5074875;28;20116;-92
2022/01/30 00:06:46;;;;;;;27.40;4.60;;;;;;;;;;5075137;28;20471;-92
2022/01/30 00:09:19;;;;;;;26.08;5.00;;;;;;;;;;5075214;28;20047;-93
2022/01/30 00:11:50;;;;;;;24.38;4.15;;;;;;;;;;5074844;28;20048;-94
2022/01/30 00:14:18;;;;;;;22.40;3.63;;;;;;;;;;5074784;28;20127;-90
2022/01/30 00:16:44;;;;;;;22.75;3.97;;;;;;;;;;5058178;28;20053;-92
2022/01/30 00:21:41;;;;;;;28.15;4.70;;;;;;;;;;5074836;28;20048;-91
2022/01/30 00:24:13;;;;;;;21.90;5.40;;;;;;;;;;5074818;28;20037;-93
2022/01/30 00:26:40;;;;;;;29.58;5.35;;;;;;;;;;5074549;28;20110;-90
2022/01/30 00:29:07;;;;;;;18.02;3.20;;;;;;;;;;5074479;28;20123;-93
2022/01/30 00:31:34;;;;;;;20.92;3.80;;;;;;;;;;5074182;28;20140;-91
2022/01/30 00:34:03;;;;;;;19.25;3.40;;;;;;;;;;5057452;28;20036;-93
2022/01/30 00:36:32;;;;;;;16.15;3.10;;;;;;;;;;5057391;28;20098;-91
2022/01/30 00:38:59;;;;;;;18.50;3.63;;;;;;;;;;5074443;28;20253;-92
2022/01/30 00:41:25;;;;;;;18.35;3.20;;;;;;;;;;5074155;28;20115;-92
2022/01/30 00:43:51;;;;;;;21.48;4.10;;;;;;;;;;5074073;28;20047;-94
2022/01/30 00:46:17;;;;;;;20.60;3.65;;;;;;;;;;5057598;28;20135;-92
2022/01/30 00:48:43;;;;;;;23.55;4.35;;;;;;;;;;5073906;28;20088;-91
2022/01/30 00:51:09;;;;;;;18.25;3.65;;;;;;;;;;5057173;28;20047;-91
2022/01/30 00:53:35;;;;;;;22.77;3.03;;;;;;;;;;5057114;28;20087;-92
2022/01/30 00:56:01;;;;;;;15.07;3.53;;;;;;;;;;5073720;28;20086;-92
2022/01/30 00:58:27;;;;;;;15.13;2.92;;;;;;;;;;5073850;28;20048;-92
2022/01/30 01:00:53;;;;;;;15.68;2.55;;;;;;;;;;5057238;28;20411;-93
2022/01/30 01:03:19;;;;;;;16.00;3.40;;;;;;;;;;5073630;28;20040;-91
2022/01/30 01:05:45;;;;;;;23.83;4.72;;;;;;;;;;5057243;28;20445;-94
2022/01/30 01:08:21;;;;;;;22.10;4.30;;;;;;;;;;5056984;28;20040;-90
2022/01/30 01:10:53;;;;;;;31.95;5.00;;;;;;;;;;5057483;28;20040;-92
2022/01/30 01:13:46;;;;;;;27.65;4.05;;;;;;;;;;5073864;28;20048;-93
2022/01/30 01:20:58;;;;;;;26.17;4.50;;;;;;;;;;5073655;28;20071;-94
2022/01/30 01:24:38;;;;;;;25.10;4.85;;;;;;;;;;5072504;28;20041;-93
2022/01/30 01:27:04;;;;;;;25.27;3.88;;;;;;;;;;5073156;28;20041;-92
2022/01/30 01:29:30;;;;;;;27.75;4.85;;;;;;;;;;5056925;28;20494;-92
2022/01/30 01:31:56;;;;;;;16.35;3.88;;;;;;;;;;5073239;28;20032;-92
2022/01/30 01:34:32;;;;;;;23.95;4.40;;;;;;;;;;5073358;28;20101;-91
2022/01/30 01:36:58;;;;;;;23.83;5.10;;;;;;;;;;5056328;28;20536;-92
2022/01/30 01:39:24;;;;;;;23.60;4.45;;;;;;;;;;5073509;28;20105;-93
2022/01/30 01:41:51;;;;;;;23.80;5.15;;;;;;;;;;5056561;28;20431;-93
2022/01/30 01:44:21;;;;;;;32.95;5.53;;;;;;;;;;5056553;28;20040;-92
2022/01/30 01:46:48;;;;;;;22.95;4.72;;;;;;;;;;5057103;28;20500;-92
2022/01/30 01:49:21;;;;;;;25.65;5.05;;;;;;;;;;5073139;28;20044;-93
2022/01/30 01:52:01;;;;;;;27.92;5.55;;;;;;;;;;5073306;28;20101;-92
2022/01/30 01:54:27;;;;;;;27.35;4.82;;;;;;;;;;5073474;28;20055;-91
2022/01/30 01:56:53;;;;;;;30.77;4.78;;;;;;;;;;5056669;28;20036;-91
2022/01/30 01:59:19;;;;;;;22.27;4.75;;;;;;;;;;5072667;28;20037;-93
2022/01/30 02:01:49;;;;;;;22.35;4.55;;;;;;;;;;5056603;28;20193;-92
2022/01/30 02:04:15;;;;;;;28.35;4.93;;;;;;;;;;5055916;28;20040;-92
2022/01/30 02:06:42;;;;;;;25.02;4.78;;;;;;;;;;5057077;28;20108;-96
2022/01/30 02:09:11;;;;;;;23.85;5.10;;;;;;;;;;5056572;28;20047;-92
2022/01/30 02:11:42;;;;;;;22.35;4.07;;;;;;;;;;5056970;28;20047;-93
2022/01/30 02:24:46;;;;;;;;;;;;;;;;;;5073027;28;20479;-92
2022/01/30 02:27:19;;;;;;;26.67;5.25;;;;;;;;;;5056002;28;20007;-91
2022/01/30 02:29:45;;;;;;;28.88;5.65;;;;;;;;;;5072750;28;20041;-92
2022/01/30 02:32:11;;;;;;;39.08;5.97;;;;;;;;;;5055553;28;20045;-91
2022/01/30 02:34:37;;;;;;;26.80;4.72;;;;;;;;;;5072564;28;20423;-93
2022/01/30 02:37:04;;;;;;;30.38;6.10;;;;;;;;;;5072559;28;20485;-93
2022/01/30 02:39:30;;;;;;;26.83;5.88;;;;;;;;;;5072632;28;20033;-91
2022/01/30 02:41:56;;;;;;;24.55;5.00;;;;;;;;;;5074084;28;20119;-92
2022/01/30 02:44:33;;;;;;;29.08;5.82;;;;;;;;;;5072168;28;20039;-91
2022/01/30 02:47:05;;;;;;;26.45;5.07;;;;;;;;;;5055615;28;20045;-91
2022/01/30 02:49:45;;;;;;;28.88;4.88;;;;;;;;;;5056248;28;20044;-93
2022/01/30 02:52:12;;;;;;;26.65;5.90;;;;;;;;;;5072728;28;20041;-93
2022/01/30 02:54:38;;;;;;;30.70;5.22;;;;;;;;;;5055465;28;20090;-93
2022/01/30 02:57:04;;;;;;;27.02;5.32;;;;;;;;;;5056120;28;20357;-92
2022/01/30 02:59:31;;;;;;;22.77;5.47;;;;;;;;;;5072419;28;20033;-91
2022/01/30 03:01:57;;;;;;;35.53;5.45;;;;;;;;;;5072926;28;20094;-90
2022/01/30 03:04:23;;;;;;;35.97;6.47;;;;;;;;;;5055030;28;20049;-92
2022/01/30 03:06:49;;;;;;;31.60;6.05;;;;;;;;;;5072369;28;20047;-92
2022/01/30 03:09:15;;;;;;;32.28;5.68;;;;;;;;;;5055702;28;20036;-92
2022/01/30 03:11:41;;;;;;;39.20;6.22;;;;;;;;;;5055519;28;20048;-93
2022/01/30 03:14:07;;;;;;;34.65;6.93;;;;;;;;;;5055578;28;20040;-93
2022/01/30 03:16:33;;;;;;;33.63;6.25;;;;;;;;;;5072462;28;20046;-91
2022/01/30 03:19:02;;;;;;;38.42;6.38;;;;;;;;;;5055632;28;20041;-91
2022/01/30 03:21:28;;;;;;;31.35;7.03;;;;;;;;;;5072974;28;20094;-92
2022/01/30 03:23:54;;;;;;;29.90;5.72;;;;;;;;;;5072214;28;20434;-93
2022/01/30 03:26:20;;;;;;;34.00;7.35;;;;;;;;;;5072312;28;20041;-94
2022/01/30 03:28:48;;;;;;;33.58;7.05;;;;;;;;;;5072072;28;20102;-94
2022/01/30 03:31:17;;;;;;;31.85;5.70;;;;;;;;;;5055136;28;20486;-95
2022/01/30 03:33:43;;;;;;;40.00;7.45;;;;;;;;;;5055056;28;20097;-92
2022/01/30 03:36:09;;;;;;;29.60;6.35;;;;;;;;;;5055248;28;20044;-94
2022/01/30 03:38:35;;;;;;;28.23;6.63;;;;;;;;;;5072287;28;20047;-92
2022/01/30 03:41:01;;;;;;;29.00;6.30;;;;;;;;;;5072385;28;20052;-93
2022/01/30 03:43:27;;;;;;;31.85;6.90;;;;;;;;;;5072154;28;20045;-94
2022/01/30 03:45:53;;;;;;;33.58;5.65;;;;;;;;;;5054976;28;20058;-94
2022/01/30 03:48:19;;;;;;;30.02;6.00;;;;;;;;;;5056634;28;20127;-93
2022/01/30 03:50:45;;;;;;;31.42;5.55;;;;;;;;;;5058950;28;20495;-93
2022/01/30 03:53:12;;;;;;;36.58;5.75;;;;;;;;;;5058592;28;20051;-92
2022/01/30 03:55:38;;;;;;;29.60;5.70;;;;;;;;;;5058999;28;20040;-91
2022/01/30 03:58:05;;;;;;;29.30;5.70;;;;;;;;;;5058536;28;20051;-92
2022/01/30 04:00:31;;;;;;;29.65;6.03;;;;;;;;;;5058220;28;20124;-94
2022/01/30 04:02:57;;;;;;;35.30;6.85;;;;;;;;;;5058563;28;20488;-92
2022/01/30 04:05:23;;;;;;;38.20;8.48;;;;;;;;;;5058707;28;20067;-92
2022/01/30 04:07:50;;;;;;;34.42;7.47;;;;;;;;;;5058980;28;20058;-92
2022/01/30 04:10:17;;;;;;;40.22;6.40;;;;;;;;;;5058099;28;20136;-92
2022/01/30 04:12:43;;;;;;;37.42;6.97;;;;;;;;;;5041608;28;20044;-92
2022/01/30 04:15:09;;;;;;;39.22;6.93;;;;;;;;;;5058011;28;20047;-91
2022/01/30 04:17:35;;;;;;;33.97;6.45;;;;;;;;;;5057732;28;20040;-91
2022/01/30 04:20:01;;;;;;;35.67;6.45;;;;;;;;;;5058059;28;20043;-92
2022/01/30 04:22:28;;;;;;;37.63;6.88;;;;;;;;;;5058347;28;20037;-93
2022/01/30 04:24:54;;;;;;;35.38;6.93;;;;;;;;;;5057697;28;20088;-92
2022/01/30 04:27:20;;;;;;;37.95;7.15;;;;;;;;;;5058120;28;20342;-91
2022/01/30 04:29:47;;;;;;;31.02;6.93;;;;;;;;;;5057635;28;20133;-92
2022/01/30 04:32:13;;;;;;;35.95;7.40;;;;;;;;;;5057719;28;20054;-92
2022/01/30 04:34:42;;;;;;;31.40;5.45;;;;;;;;;;5057708;28;20495;-92
2022/01/30 04:37:18;;;;;;;30.73;7.28;;;;;;;;;;5057593;28;20216;-92
2022/01/30 04:56:46;;;;;;;40.67;6.93;;;;;;;;;;5073946;28;20036;-92
2022/01/30 04:59:10;;;;;;;39.80;8.32;;;;;;;;;;5074140;28;20044;-93
2022/01/30 05:01:57;;;;;;;36.63;6.97;;;;;;;;;;5057767;28;20040;-93
2022/01/30 05:09:41;;;;;;;40.80;6.93;;;;;;;;;;5073437;28;20071;-92
2022/01/30 05:12:07;;;;;;;37.55;9.07;;;;;;;;;;5073871;28;20040;-91
2022/01/30 05:14:34;;;;;;;39.53;7.35;;;;;;;;;;5073467;28;20048;-92
2022/01/30 05:17:00;;;;;;;48.67;7.60;;;;;;;;;;5057104;28;20369;-92
2022/01/30 05:19:26;;;;;;;41.13;7.43;;;;;;;;;;5073318;28;20037;-95
2022/01/30 05:21:53;;;;;;;45.45;8.90;;;;;;;;;;5057235;28;20123;-92
2022/01/30 05:24:19;;;;;;;43.22;7.90;;;;;;;;;;5078132;28;20090;-93
2022/01/30 05:26:46;;;;;;;40.08;7.82;;;;;;;;;;5073488;28;20132;-93
2022/01/30 05:29:13;;;;;;;45.40;7.90;;;;;;;;;;5073413;28;20040;-92
2022/01/30 05:31:39;;;;;;;37.38;7.72;;;;;;;;;;5073933;28;20392;-92
2022/01/30 05:34:05;;;;;;;47.42;8.65;;;;;;;;;;5073370;28;20041;-93
2022/01/30 05:36:32;;;;;;;37.20;7.97;;;;;;;;;;5073535;28;20048;-92
2022/01/30 05:39:00;;;;;;;37.35;7.88;;;;;;;;;;5073276;28;20072;-90
2022/01/30 05:41:27;;;;;;;44.42;8.50;;;;;;;;;;5057165;28;20032;-91
2022/01/30 05:43:57;;;;;;;39.00;8.30;;;;;;;;;;5056408;28;20476;-90
2022/01/30 05:46:38;;;;;;;38.17;6.63;;;;;;;;;;5074033;28;20064;-93
2022/01/30 05:49:05;;;;;;;45.80;8.18;;;;;;;;;;5056574;28;20045;-91
2022/01/30 05:51:31;;;;;;;42.28;8.15;;;;;;;;;;5072853;28;20056;-93
2022/01/30 05:53:57;;;;;;;41.05;7.15;;;;;;;;;;5056563;28;20483;-93
2022/01/30 05:56:23;;;;;;;40.97;8.48;;;;;;;;;;5056373;28;20049;-93
2022/01/30 05:58:49;;;;;;;34.38;7.18;;;;;;;;;;5073004;28;20094;-91
2022/01/30 06:01:15;;;;;;;33.13;7.03;;;;;;;;;;5072375;28;20033;-92
2022/01/30 06:03:41;;;;;;;33.58;5.95;;;;;;;;;;5055865;28;20407;-93
2022/01/30 06:06:08;;;;;;;30.20;6.95;;;;;;;;;;5072497;28;20040;-92
2022/01/30 06:08:56;;;;;;;37.22;6.38;;;;;;;;;;5055656;28;20552;-91
2022/01/30 06:11:22;;;;;;;39.33;6.45;;;;;;;;;;5055129;28;20037;-90
2022/01/30 06:13:48;;;;;;;33.10;7.05;;;;;;;;;;5072503;28;20070;-92
2022/01/30 06:16:14;;;;;;;32.75;5.80;;;;;;;;;;5072173;28;20040;-92
2022/01/30 06:18:40;;;;;;;35.60;6.47;;;;;;;;;;5072296;28;20040;-91
2022/01/30 06:21:06;;;;;;;41.08;6.50;;;;;;;;;;5072586;28;20039;-91
2022/01/30 06:23:32;;;;;;;36.72;5.93;;;;;;;;;;5055593;28;20036;-91
2022/01/30 06:25:59;;;;;;;31.00;6.57;;;;;;;;;;5072383;28;20403;-91
2022/01/30 06:28:25;;;;;;;46.08;7.10;;;;;;;;;;5072598;28;20075;-91
2022/01/30 06:30:51;;;;;;;45.85;8.40;;;;;;;;;;5072015;28;20487;-93
2022/01/30 06:33:17;;;;;;;44.03;7.15;;;;;;;;;;5055347;28;20079;-92
2022/01/30 06:35:43;;;;;;;45.20;8.50;;;;;;;;;;5055413;28;20044;-92
2022/01/30 06:38:09;;;;;;;43.60;8.25;;;;;;;;;;5055792;28;20098;-92
2022/01/30 06:40:35;;;;;;;40.53;8.70;;;;;;;;;;5074125;28;20047;-91
2022/01/30 06:43:01;;;;;;;41.90;8.02;;;;;;;;;;5055940;28;20040;-92
2022/01/30 06:45:27;;;;;;;47.60;7.63;;;;;;;;;;5055349;28;20513;-91
2022/01/30 06:47:53;;;;;;;34.47;8.02;;;;;;;;;;5071664;28;20144;-91
2022/01/30 06:50:19;;;;;;;40.10;6.90;;;;;;;;;;5054703;28;20056;-92
2022/01/30 06:52:46;;;;;;;45.88;8.27;;;;;;;;;;5071825;28;20123;-92
2022/01/30 06:55:12;;;;;;;46.53;7.47;;;;;;;;;;5054346;28;20056;-92
2022/01/30 06:57:44;;;;;;;37.92;6.85;;;;;;;;;;5055052;28;20047;-91
2022/01/30 07:00:11;;;;;;;37.30;6.85;;;;;;;;;;5071342;28;20105;-92
2022/01/30 07:02:37;;;;;;;40.22;8.18;;;;;;;;;;5054629;28;20048;-92
2022/01/30 07:05:03;;;;;;;41.85;8.45;;;;;;;;;;5055321;28;20036;-92
2022/01/30 07:07:30;;;;;;;33.80;6.80;;;;;;;;;;5054642;28;20040;-91
2022/01/30 07:09:56;;;;;;;39.80;8.38;;;;;;;;;;5055015;28;20269;-91
2022/01/30 07:12:22;;;;;;;40.17;7.15;;;;;;;;;;5055122;28;20464;-92
2022/01/30 07:14:48;;;;;;;39.05;7.97;;;;;;;;;;5071133;28;20072;-92
2022/01/30 07:17:14;;;;;;;37.90;7.88;;;;;;;;;;5054820;28;20037;-93
2022/01/30 07:19:40;;;;;;;45.45;8.20;;;;;;;;;;5054982;28;20047;-92
2022/01/30 07:22:06;;;;;;;40.90;7.90;;;;;;;;;;5071303;28;20041;-90
2022/01/30 07:24:32;;;;;;;36.80;7.60;;;;;;;;;;5057921;28;20047;-92
2022/01/30 07:26:58;;;;;;;43.28;7.65;;;;;;;;;;5074954;28;20170;-92
2022/01/30 07:29:24;;;;;;;47.83;7.82;;;;;;;;;;5058854;28;20078;-91
2022/01/30 07:31:50;;;;;;;37.95;7.75;;;;;;;;;;5058458;28;20051;-93
2022/01/30 07:34:16;;;;;;;44.40;8.15;;;;;;;;;;5057613;28;20048;-93
2022/01/30 07:36:43;;;;;;;30.02;6.65;;;;;;;;;;5072845;28;20048;-91
2022/01/30 07:39:11;;;;;;;41.75;7.38;;;;;;;;;;5058473;28;20360;-92
2022/01/30 07:41:37;;;;;;;38.78;6.40;;;;;;;;;;5057949;28;20083;-91
2022/01/30 07:44:04;;;;;;;28.23;6.13;;;;;;;;;;5074984;28;20040;-92
2022/01/30 07:46:31;;;;;;;35.10;7.80;;;;;;;;;;5074825;28;20511;-92
2022/01/30 07:48:57;;;;;;;36.08;7.30;;;;;;;;;;5058140;28;20052;-91
2022/01/30 07:51:23;;;;;;;35.33;6.85;;;;;;;;;;5058067;28;20048;-92
2022/01/30 07:53:49;;;;;;;34.88;6.95;;;;;;;;;;5075421;28;20037;-90
2022/01/30 07:56:15;;;;;;;30.88;6.03;;;;;;;;;;5058828;28;20466;-92
2022/01/30 07:58:41;;;;;;;35.25;6.20;;;;;;;;;;5058265;28;20032;-92
2022/01/30 08:01:07;;;;;;;29.50;6.05;;;;;;;;;;5072659;28;20040;-92
2022/01/30 08:03:36;;;;;;;41.35;7.65;;;;;;;;;;5062598;28;20040;-88
2022/01/30 08:06:02;;;;;;;37.70;6.38;;;;;;;;;;5076162;28;20048;-93
2022/01/30 08:08:28;;;;;;;35.72;8.00;;;;;;;;;;5075603;28;20044;-95
2022/01/30 08:10:54;;;;;;;29.75;7.10;;;;;;;;;;5075132;28;20074;-91
2022/01/30 08:13:20;;;;;;;39.08;7.38;;;;;;;;;;5075379;28;20074;-92
2022/01/30 08:15:46;;;;;;;36.33;6.95;;;;;;;;;;5058572;28;20080;-93
2022/01/30 08:18:12;;;;;;;30.65;6.90;;;;;;;;;;5074822;28;20036;-91
2022/01/30 08:20:38;;;;;;;37.80;7.00;;;;;;;;;;5077324;28;20037;-92
2022/01/30 08:23:12;;;;;;;35.22;6.10;;;;;;;;;;5074919;28;20094;-92
2022/01/30 08:25:38;;;;;;;37.10;6.57;;;;;;;;;;5058857;28;20044;-87
2022/01/30 08:28:04;;;;;;;39.08;7.25;;;;;;;;;;5057862;28;20043;-92
2022/01/30 08:30:30;;;;;;;39.85;8.77;;;;;;;;;;5058274;28;20037;-93
2022/01/30 08:32:58;;;;;;;36.60;6.78;;;;;;;;;;5074476;28;20094;-91
2022/01/30 08:35:24;;;;;;;37.80;7.47;;;;;;;;;;5057592;28;20045;-91
2022/01/30 08:37:50;;;;;;;40.53;8.68;;;;;;;;;;5057512;28;20041;-92
2022/01/30 08:40:20;;;;;;;35.28;7.22;;;;;;;;;;5074178;28;20129;-93
2022/01/30 08:42:46;;;;;;;41.60;8.20;;;;;;;;;;5057452;28;20036;-92
2022/01/30 08:45:13;;;;;;;37.08;7.65;;;;;;;;;;5076101;28;20484;-88
2022/01/30 08:47:40;;;;;;;39.33;8.35;;;;;;;;;;5057975;28;20053;-89
2022/01/30 08:50:07;;;;;;;48.78;7.75;;;;;;;;;;5074958;28;20045;-91
2022/01/30 08:52:33;;;;;;;39.30;8.10;;;;;;;;;;5050972;28;20127;-91
2022/01/30 08:54:59;;;;;;;42.30;6.68;;;;;;;;;;5056888;28;20483;-91
2022/01/30 08:57:25;;;;;;;41.95;7.93;;;;;;;;;;5066398;28;20036;-93
2022/01/30 08:59:51;;;;;;;37.63;7.10;;;;;;;;;;5057307;28;20047;-92
2022/01/30 09:02:19;;;;;;;32.13;6.63;;;;;;;;;;5057055;28;20499;-90
2022/01/30 09:04:45;;;;;;;31.15;5.97;;;;;;;;;;5057058;28;20494;-92
2022/01/30 09:07:17;;;;;;;28.45;5.78;;;;;;;;;;5057110;28;20165;-91
2022/01/30 09:09:44;;;;;;;27.10;5.43;;;;;;;;;;5073753;28;20041;-93
2022/01/30 09:12:10;;;;;;;38.35;7.00;;;;;;;;;;5073341;28;20047;-90
2022/01/30 09:14:40;;;;;;;35.03;6.65;;;;;;;;;;5073553;28;20036;-91
2022/01/30 09:17:14;;;;;;;38.50;6.80;;;;;;;;;;5073286;28;20048;-92
2022/01/30 09:19:41;;;;;;;35.45;7.97;;;;;;;;;;5057440;28;20086;-92
2022/01/30 09:22:08;;;;;;;44.33;7.65;;;;;;;;;;5058153;28;20037;-90
2022/01/30 09:24:34;;;;;;;33.05;7.35;;;;;;;;;;5073601;28;20094;-92
2022/01/30 09:27:00;;;;;;;36.35;7.22;;;;;;;;;;5057122;28;20127;-92
2022/01/30 09:29:27;;;;;;;36.45;7.38;;;;;;;;;;5063544;28;20044;-90
2022/01/30 09:31:53;;;;;;;38.88;7.32;;;;;;;;;;5036534;28;20094;-91
2022/01/30 09:34:19;;;;;;;32.22;6.82;;;;;;;;;;5053008;28;20041;-90
2022/01/30 09:36:45;;;;;;;33.30;6.50;;;;;;;;;;5036218;28;20460;-91
2022/01/30 09:39:11;;;;;;;33.35;7.57;;;;;;;;;;5036948;28;20120;-90
2022/01/30 09:41:40;;;;;;;42.45;7.95;;;;;;;;;;5036672;28;20119;-90
2022/01/30 09:44:06;;;;;;;42.55;7.90;;;;;;;;;;5036366;28;20045;-92
2022/01/30 09:46:32;;;;;;;34.97;6.93;;;;;;;;;;5035408;28;20121;-91
2022/01/30 09:48:59;;;;;;;34.38;7.25;;;;;;;;;;5036077;28;20055;-90
2022/01/30 09:51:26;;;;;;;39.53;7.25;;;;;;;;;;5108894;23;20131;-92
2022/01/30 09:53:52;;;;;;;38.88;6.30;;;;;;;;;;5064968;28;20048;-90
2022/01/30 09:56:19;;;;;;;32.95;7.45;;;;;;;;;;5055921;28;20051;-91
2022/01/30 09:58:46;;;;;;;42.70;7.30;;;;;;;;;;5056315;28;20044;-91
2022/01/30 10:01:12;;;;;;;33.63;5.68;;;;;;;;;;5039577;28;20043;-91
2022/01/30 10:03:38;;;;;;;36.80;6.97;;;;;;;;;;5055987;28;20409;-91
2022/01/30 10:06:09;;;;;;;35.50;6.70;;;;;;;;;;5055599;28;20047;-91
2022/01/30 10:08:44;;;;;;;39.67;7.82;;;;;;;;;;5056055;28;20037;-89
2022/01/30 10:11:28;;;;;;;34.10;6.03;;;;;;;;;;5039745;28;20451;-91
2022/01/30 10:14:04;;;;;;;30.27;6.47;;;;;;;;;;5055415;28;20070;-91
2022/01/30 10:16:33;;;;;;;34.67;6.97;;;;;;;;;;5038619;28;20048;-90
2022/01/30 10:19:07;;;;;;;27.77;6.45;;;;;;;;;;5055724;28;20483;-90
2022/01/30 10:21:36;;;;;;;34.17;6.40;;;;;;;;;;5040680;28;20040;-92
2022/01/30 10:24:17;;;;;;;29.00;5.22;;;;;;;;;;5057002;28;20092;-91
2022/01/30 10:26:43;;;;;;;36.22;6.10;;;;;;;;;;5054231;28;20506;-90
2022/01/30 10:29:26;;;;;;;29.05;5.95;;;;;;;;;;5045143;28;20037;-90
2022/01/30 10:32:03;;;;;;;31.63;5.93;;;;;;;;;;5045859;28;20048;-91
2022/01/30 10:34:29;;;;;;;31.10;5.82;;;;;;;;;;5044963;28;20068;-91
2022/01/30 10:37:13;;;;;;;36.15;5.78;;;;;;;;;;5027189;28;20048;-90
2022/01/30 10:39:56;;;;;;;35.38;7.53;;;;;;;;;;5049643;28;20044;-91
2022/01/30 10:42:32;;;;;;;34.80;6.85;;;;;;;;;;5019308;28;20060;-93
2022/01/30 10:44:58;;;;;;;41.45;7.53;;;;;;;;;;5018932;28;20037;-91
2022/01/30 10:47:24;;;;;;;39.30;7.15;;;;;;;;;;5018855;28;20037;-92
2022/01/30 10:49:50;;;;;;;44.42;7.50;;;;;;;;;;5019371;28;20041;-91
2022/01/30 10:52:17;;;;;;;35.53;7.38;;;;;;;;;;5018706;28;20053;-90
2022/01/30 10:54:43;;;;;;;34.75;7.70;;;;;;;;;;5035279;28;20068;-91
2022/01/30 10:57:10;;;;;;;37.53;6.78;;;;;;;;;;5019810;28;20049;-90
2022/01/30 10:59:42;;;;;;;42.45;6.85;;;;;;;;;;5039142;28;20083;-92
2022/01/30 11:02:12;;;;;;;35.92;6.15;;;;;;;;;;5022977;28;20044;-92
2022/01/30 11:04:38;;;;;;;32.20;6.40;;;;;;;;;;5022788;28;20043;-91
2022/01/30 11:07:05;;;;;;;39.75;7.60;;;;;;;;;;5047383;28;20127;-92
2022/01/30 11:09:40;;;;;;;38.30;6.43;;;;;;;;;;5034557;28;20047;-91
2022/01/30 11:12:10;;;;;;;37.17;7.73;;;;;;;;;;5040359;28;20044;-91
2022/01/30 11:14:51;;;;;;;36.90;7.45;;;;;;;;;;5052771;28;20294;-92
2022/01/30 11:17:19;;;;;;;37.95;6.05;;;;;;;;;;5030254;28;20040;-91
2022/01/30 11:19:46;;;;;;;44.55;8.07;;;;;;;;;;5049141;28;21436;-93
2022/01/30 11:22:30;;;;;;;41.75;6.88;;;;;;;;;;5033158;28;20400;-92
2022/01/30 11:25:07;;;;;;;37.20;6.28;;;;;;;;;;5050267;28;20068;-91
2022/01/30 11:27:33;;;;;;;32.58;6.25;;;;;;;;;;5046265;28;20041;-91
2022/01/30 11:30:01;;;;;;;35.95;6.15;;;;;;;;;;5043725;28;20041;-91
2022/01/30 11:32:27;;;;;;;29.75;6.18;;;;;;;;;;5051864;28;20064;-92
2022/01/30 11:37:30;;;;;;;35.15;6.88;;;;;;;;;;5490193;22;20569;-94
2022/01/30 11:39:56;;;;;;;28.80;5.72;;;;;;;;;;5043812;28;20056;-92
2022/01/30 11:42:25;;;;;;;35.92;6.30;;;;;;;;;;5023154;28;20049;-91
2022/01/30 11:44:51;;;;;;;29.92;5.65;;;;;;;;;;5002342;28;20038;-92
2022/01/30 11:47:18;;;;;;;33.75;6.47;;;;;;;;;;5018084;28;20559;-91
2022/01/30 11:49:48;;;;;;;34.83;5.85;;;;;;;;;;5002196;28;20431;-94
2022/01/30 11:52:15;;;;;;;37.17;6.28;;;;;;;;;;5002590;28;20109;-90
2022/01/30 11:54:46;;;;;;;38.42;7.82;;;;;;;;;;5019840;28;20049;-93
2022/01/30 11:57:21;;;;;;;38.20;7.05;;;;;;;;;;5001965;28;20073;-92
2022/01/30 11:59:54;;;;;;;37.53;6.32;;;;;;;;;;5018630;28;20069;-92
2022/01/30 12:02:24;;;;;;;32.67;6.63;;;;;;;;;;5018359;28;20037;-91
2022/01/30 12:04:53;;;;;;;36.40;6.82;;;;;;;;;;5018341;28;20535;-91
2022/01/30 12:07:39;;;;;;;31.77;5.88;;;;;;;;;;5019064;28;20064;-93
2022/01/30 12:10:20;;;;;;;36.60;6.97;;;;;;;;;;5001386;28;20433;-92
2022/01/30 12:12:48;;;;;;;34.15;6.78;;;;;;;;;;5002125;28;20042;-94
2022/01/30 12:15:32;;;;;;;30.20;5.57;;;;;;;;;;5001655;28;20045;-92
2022/01/30 12:17:59;;;;;;;36.60;7.15;;;;;;;;;;5018205;28;20045;-91
2022/01/30 12:20:25;;;;;;;32.88;6.53;;;;;;;;;;5001812;28;20033;-90
2022/01/30 12:22:55;;;;;;;37.78;7.63;;;;;;;;;;5017825;28;20116;-91
2022/01/30 12:25:21;;;;;;;34.10;6.65;;;;;;;;;;5017985;28;20048;-93
2022/01/30 12:27:48;;;;;;;40.65;6.35;;;;;;;;;;5017543;28;20045;-93
2022/01/30 12:30:30;;;;;;;32.63;6.05;;;;;;;;;;5001462;28;20708;-93
2022/01/30 12:32:57;;;;;;;39.70;5.72;;;;;;;;;;5019615;28;20041;-91
2022/01/30 12:35:23;;;;;;;37.13;6.70;;;;;;;;;;5035331;28;20041;-93
2022/01/30 12:37:49;;;;;;;30.58;6.10;;;;;;;;;;5017384;28;20567;-92
2022/01/30 12:40:16;;;;;;;37.85;7.20;;;;;;;;;;5017409;28;20072;-91
2022/01/30 12:42:42;;;;;;;37.38;7.32;;;;;;;;;;5017508;28;20042;-92
2022/01/30 12:45:09;;;;;;;42.25;8.88;;;;;;;;;;5001239;28;20404;-91
2022/01/30 12:47:45;;;;;;;37.33;6.88;;;;;;;;;;5001252;28;20120;-92
2022/01/30 12:50:11;;;;;;;29.73;5.65;;;;;;;;;;5001229;28;20049;-92
2022/01/30 12:52:37;;;;;;;27.30;5.60;;;;;;;;;;5001243;28;20041;-94
2022/01/30 12:55:11;;;;;;;31.25;5.75;;;;;;;;;;5000982;28;20060;-92
2022/01/30 12:57:37;;;;;;;27.17;6.45;;;;;;;;;;5000638;28;20037;-91
2022/01/30 13:00:08;;;;;;;31.60;6.43;;;;;;;;;;5016948;28;20045;-91
2022/01/30 13:02:36;;;;;;;37.78;6.22;;;;;;;;;;5000866;28;20124;-92
2022/01/30 13:05:07;;;;;;;35.70;5.97;;;;;;;;;;5016860;28;20048;-91
2022/01/30 13:07:33;;;;;;;31.42;5.82;;;;;;;;;;5016933;28;20424;-91
2022/01/30 13:10:26;;;;;;;29.90;6.18;;;;;;;;;;5000647;28;20041;-91
2022/01/30 13:12:52;;;;;;;26.02;5.78;;;;;;;;;;5013361;28;20084;-91
2022/01/30 13:15:21;;;;;;;33.78;5.65;;;;;;;;;;5000426;28;20048;-92
2022/01/30 13:17:47;;;;;;;35.40;5.72;;;;;;;;;;5000783;28;20045;-92
2022/01/30 13:20:13;;;;;;;32.55;6.25;;;;;;;;;;5000600;28;20333;-92
2022/01/30 13:22:43;;;;;;;31.30;5.80;;;;;;;;;;5016868;28;20435;-91
2022/01/30 13:25:10;;;;;;;30.02;5.40;;;;;;;;;;5016793;28;20439;-92
2022/01/30 13:27:37;;;;;;;27.73;4.88;;;;;;;;;;5000372;28;20169;-93
2022/01/30 13:30:03;;;;;;;30.48;5.30;;;;;;;;;;4999879;28;20373;-92
2022/01/30 13:32:29;;;;;;;28.88;5.55;;;;;;;;;;5000007;28;20128;-91
2022/01/30 13:34:58;;;;;;;30.48;6.13;;;;;;;;;;5016221;28;20132;-91
2022/01/30 13:37:25;;;;;;;30.25;5.63;;;;;;;;;;4999896;28;20050;-91
2022/01/30 13:44:53;;;;;;;31.67;6.15;;;;;;;;;;5016103;28;20046;-92
2022/01/30 13:47:22;;;;;;;24.30;4.90;;;;;;;;;;5016254;28;20049;-92
2022/01/30 13:49:50;;;;;;;28.73;6.07;;;;;;;;;;4999657;28;20038;-90
2022/01/30 13:52:17;;;;;;;31.45;5.97;;;;;;;;;;5016196;28;20037;-91
2022/01/30 13:54:43;;;;;;;25.63;5.00;;;;;;;;;;5016065;28;20484;-92
2022/01/30 13:57:10;;;;;;;28.48;5.28;;;;;;;;;;5016060;28;20084;-92
2022/01/30 13:59:36;;;;;;;30.05;5.75;;;;;;;;;;4999564;28;20448;-92
2022/01/30 14:02:04;;;;;;;27.65;4.20;;;;;;;;;;5017926;28;20104;-93
2022/01/30 14:04:31;;;;;;;28.05;5.70;;;;;;;;;;5000072;28;20092;-92
2022/01/30 14:07:00;;;;;;;23.77;4.63;;;;;;;;;;5000784;28;20132;-91
2022/01/30 14:09:35;;;;;;;30.70;5.72;;;;;;;;;;5003312;28;20072;-92
2022/01/30 14:12:02;;;;;;;;;;;;;;;;;;5000315;28;20045;-92
2022/01/30 14:14:29;;;;;;;27.63;4.93;;;;;;;;;;4999381;28;19925;-92
2022/01/30 14:17:00;;;;;;;36.03;6.78;;;;;;;;;;5015789;28;20056;-92
2022/01/30 14:19:29;;;;;;;29.23;5.70;;;;;;;;;;5016150;28;20490;-94
2022/01/30 14:22:20;;;;;;;29.02;5.72;;;;;;;;;;5016239;28;20045;-93
2022/01/30 14:24:50;;;;;;;31.15;4.80;;;;;;;;;;4999518;28;20547;-92
2022/01/30 14:27:17;;;;;;;25.83;4.70;;;;;;;;;;5015949;28;20052;-94
2022/01/30 14:29:43;;;;;;;23.42;4.25;;;;;;;;;;5015732;28;20480;-92
2022/01/30 14:32:10;;;;;;;25.73;4.97;;;;;;;;;;4998985;28;20042;-93
2022/01/30 14:34:36;;;;;;;29.77;5.43;;;;;;;;;;4999469;28;20037;-93
2022/01/30 14:37:03;;;;;;;29.33;5.07;;;;;;;;;;4998744;28;20038;-91
2022/01/30 14:39:31;;;;;;;31.40;5.63;;;;;;;;;;5015599;28;20224;-93
2022/01/30 14:41:57;;;;;;;23.67;5.40;;;;;;;;;;4999542;28;20037;-91
2022/01/30 14:44:23;;;;;;;29.67;5.22;;;;;;;;;;4999632;28;20096;-92
2022/01/30 14:46:50;;;;;;;26.92;5.70;;;;;;;;;;4999255;28;20084;-93
2022/01/30 14:49:17;;;;;;;28.83;5.43;;;;;;;;;;5015594;28;20053;-92
2022/01/30 14:51:43;;;;;;;25.08;5.72;;;;;;;;;;5015718;28;20049;-92
2022/01/30 14:54:09;;;;;;;29.40;4.97;;;;;;;;;;5015558;28;20052;-93
2022/01/30 14:56:35;;;;;;;27.27;5.47;;;;;;;;;;4999103;28;20044;-94
2022/01/30 14:59:01;;;;;;;28.10;5.00;;;;;;;;;;5015456;28;20038;-94
2022/01/30 15:01:29;;;;;;;24.48;5.03;;;;;;;;;;5015885;28;20041;-94
2022/01/30 15:03:55;;;;;;;30.55;5.40;;;;;;;;;;4999173;28;20037;-92
2022/01/30 15:06:21;;;;;;;29.27;4.93;;;;;;;;;;4998790;28;20037;-91
2022/01/30 15:08:47;;;;;;;28.75;5.47;;;;;;;;;;5015402;28;20077;-93
2022/01/30 15:11:13;;;;;;;29.33;5.50;;;;;;;;;;5015833;28;20392;-93
2022/01/30 15:13:43;;;;;;;25.40;5.38;;;;;;;;;;5016342;28;20053;-93
2022/01/30 15:16:18;;;;;;;28.15;5.13;;;;;;;;;;5018838;28;20045;-89
2022/01/30 15:18:44;;;;;;;27.38;5.70;;;;;;;;;;5017245;28;20045;-91
2022/01/30 15:21:10;;;;;;;27.67;5.60;;;;;;;;;;5015554;28;20120;-93
2022/01/30 15:23:37;;;;;;;26.98;5.65;;;;;;;;;;5015626;28;20048;-93
2022/01/30 15:26:03;;;;;;;30.67;5.22;;;;;;;;;;4998779;28;20037;-92